Time;durP1;ratioP1;P1;durP2;ratioP2;P2;SDS_P1;SDS_P2;PMS_P1;PMS_P2;Temp;Humidity;BMP_temperature;BMP_pressure;BME280_temperature;BME280_humidity;BME280_pressure;Samples;Min_cycle;Max_cycle;Signal;HPM_P1;HPM_P2
2023/09/07 00:01:08;;;;;;;11.07;7.00;;;14.50;99.90;;;;;;7602779;19;20028;-76
2023/09/07 00:03:40;;;;;;;8.75;6.13;;;14.50;99.90;;;;;;7592507;19;20112;-75
2023/09/07 00:06:14;;;;;;;12.93;7.35;;;14.50;99.90;;;;;;7586950;19;20014;-74
2023/09/07 00:08:46;;;;;;;10.18;6.25;;;14.50;99.90;;;;;;7575556;19;20022;-76
2023/09/07 00:11:18;;;;;;;9.65;6.32;;;14.50;99.90;;;;;;7572329;19;20022;-76
2023/09/07 00:13:51;;;;;;;11.27;6.70;;;14.40;99.90;;;;;;7581285;19;21248;-75
2023/09/07 00:16:23;;;;;;;11.50;6.97;;;14.40;99.90;;;;;;7578141;19;20156;-75
2023/09/07 00:18:56;;;;;;;10.35;6.60;;;14.30;99.90;;;;;;7580072;19;20024;-76
2023/09/07 00:21:28;;;;;;;11.02;6.07;;;14.30;99.90;;;;;;7581716;19;20013;-75
2023/09/07 00:24:05;;;;;;;8.60;6.05;;;14.30;99.90;;;;;;7590431;19;20015;-76
2023/09/07 00:26:37;;;;;;;8.20;6.13;;;14.30;99.90;;;;;;7586455;19;20025;-76
2023/09/07 00:29:09;;;;;;;10.65;7.13;;;14.30;99.90;;;;;;7592402;19;20014;-75
2023/09/07 00:31:41;;;;;;;9.93;6.25;;;14.30;99.90;;;;;;7595303;19;20026;-76
2023/09/07 00:34:13;;;;;;;10.40;6.70;;;14.30;99.90;;;;;;7588693;19;20293;-75
2023/09/07 00:36:46;;;;;;;12.23;6.88;;;14.20;99.90;;;;;;7575200;19;21482;-75
2023/09/07 00:39:18;;;;;;;9.57;6.60;;;14.20;99.90;;;;;;7594165;19;20015;-76
2023/09/07 00:41:51;;;;;;;8.70;6.85;;;14.20;99.90;;;;;;7591723;19;20639;-76
2023/09/07 00:44:23;;;;;;;11.93;6.43;;;14.10;99.90;;;;;;7586544;19;20023;-76
2023/09/07 00:46:57;;;;;;;9.18;7.07;;;14.10;99.90;;;;;;7578591;19;20014;-75
2023/09/07 00:49:29;;;;;;;9.45;6.88;;;14.10;99.90;;;;;;7594497;19;20026;-76
2023/09/07 00:52:03;;;;;;;15.13;6.90;;;14.10;99.90;;;;;;7582202;19;20018;-76
2023/09/07 00:54:38;;;;;;;7.35;6.60;;;14.00;99.90;;;;;;7590013;19;20591;-75
2023/09/07 00:57:10;;;;;;;10.32;7.25;;;14.00;99.90;;;;;;7569827;19;20014;-75
2023/09/07 00:59:42;;;;;;;9.57;6.65;;;14.00;99.90;;;;;;7579676;19;20020;-75
2023/09/07 01:02:15;;;;;;;9.27;6.60;;;13.90;99.90;;;;;;7581158;19;20040;-76
2023/09/07 01:04:47;;;;;;;10.02;6.45;;;13.90;99.90;;;;;;7580025;19;20090;-75
2023/09/07 01:07:32;;;;;;;13.07;7.55;;;13.90;99.90;;;;;;7595179;19;20014;-78
2023/09/07 01:10:06;;;;;;;12.60;6.75;;;13.90;99.90;;;;;;7581773;19;20026;-76
2023/09/07 01:12:38;;;;;;;8.98;7.10;;;13.80;99.90;;;;;;7591722;19;20026;-75
2023/09/07 01:15:10;;;;;;;10.00;7.38;;;13.70;99.90;;;;;;7581839;19;20010;-77
2023/09/07 01:17:44;;;;;;;8.45;6.68;;;13.60;99.90;;;;;;7600008;19;20060;-75
2023/09/07 01:20:17;;;;;;;;;;;13.70;99.90;;;;;;7589778;19;20101;-75
2023/09/07 01:22:50;;;;;;;8.40;6.88;;;13.60;99.90;;;;;;7586186;19;20252;-76
2023/09/07 01:25:23;;;;;;;8.57;7.55;;;13.70;99.90;;;;;;7594414;19;20014;-76
2023/09/07 01:27:55;;;;;;;13.37;8.00;;;13.70;99.90;;;;;;7590466;19;20974;-75
2023/09/07 01:30:28;;;;;;;7.63;6.60;;;13.70;99.90;;;;;;7587761;19;21317;-76
2023/09/07 01:33:00;;;;;;;10.73;6.57;;;13.70;99.90;;;;;;7596208;19;20014;-75
2023/09/07 01:35:34;;;;;;;9.57;6.68;;;13.70;99.90;;;;;;7582561;19;20278;-76
2023/09/07 01:38:07;;;;;;;7.82;6.65;;;13.70;99.90;;;;;;7577399;19;20011;-75
2023/09/07 01:40:39;;;;;;;9.88;6.53;;;13.60;99.90;;;;;;7587330;19;20018;-78
2023/09/07 01:43:12;;;;;;;8.75;6.78;;;13.60;99.90;;;;;;7582459;19;20052;-75
2023/09/07 01:45:44;;;;;;;8.68;6.93;;;13.60;99.90;;;;;;7588647;19;20475;-75
2023/09/07 01:48:16;;;;;;;10.80;6.68;;;13.60;99.90;;;;;;7583385;19;20026;-76
2023/09/07 01:50:53;;;;;;;8.23;6.43;;;13.50;99.90;;;;;;7586725;19;20374;-75
2023/09/07 01:53:26;;;;;;;10.35;6.90;;;13.50;99.90;;;;;;7584078;19;20299;-77
2023/09/07 01:55:59;;;;;;;11.25;7.82;;;13.40;99.90;;;;;;7580439;19;20064;-76
2023/09/07 01:58:33;;;;;;;8.55;7.25;;;13.40;99.90;;;;;;7603179;19;20701;-75
2023/09/07 02:01:05;;;;;;;;;;;13.40;99.90;;;;;;7609610;19;20015;-75
2023/09/07 02:03:37;;;;;;;9.63;6.97;;;13.40;99.90;;;;;;7589103;19;19934;-77
2023/09/07 02:06:10;;;;;;;11.27;7.15;;;13.40;99.90;;;;;;7580619;19;20026;-76
2023/09/07 02:08:42;;;;;;;12.63;7.18;;;13.40;99.90;;;;;;7583501;19;20026;-77
2023/09/07 02:11:15;;;;;;;9.20;6.90;;;13.40;99.90;;;;;;7583897;19;20025;-76
2023/09/07 02:13:48;;;;;;;12.07;7.32;;;13.30;99.90;;;;;;7577767;19;20102;-76
2023/09/07 02:16:20;;;;;;;10.45;7.88;;;13.30;99.90;;;;;;7583690;19;20031;-76
2023/09/07 02:19:01;;;;;;;11.00;7.25;;;13.30;99.90;;;;;;7576785;19;20022;-76
2023/09/07 02:21:33;;;;;;;11.73;7.25;;;13.30;99.90;;;;;;7585131;19;20018;-76
2023/09/07 02:24:06;;;;;;;9.85;7.57;;;13.30;99.90;;;;;;7577703;19;20019;-76
2023/09/07 02:26:43;;;;;;;7.97;6.20;;;13.20;99.90;;;;;;7591069;19;20633;-76
2023/09/07 02:29:15;;;;;;;11.63;7.57;;;13.30;99.90;;;;;;7574697;19;20518;-76
2023/09/07 02:31:48;;;;;;;12.45;7.20;;;13.20;99.90;;;;;;7587378;19;20496;-76
2023/09/07 02:34:21;;;;;;;11.02;7.78;;;13.20;99.90;;;;;;7574360;19;20092;-77
2023/09/07 02:36:53;;;;;;;9.48;6.72;;;13.10;99.90;;;;;;7580687;19;20027;-75
2023/09/07 02:39:26;;;;;;;12.25;8.43;;;13.10;99.90;;;;;;7583838;19;20052;-76
2023/09/07 02:41:58;;;;;;;11.52;6.88;;;13.10;99.90;;;;;;7576005;19;20346;-75
2023/09/07 02:44:30;;;;;;;14.80;7.35;;;13.00;99.90;;;;;;7575268;19;20114;-75
2023/09/07 02:47:03;;;;;;;10.47;8.17;;;13.00;99.90;;;;;;7588764;19;20924;-76
2023/09/07 02:49:35;;;;;;;9.43;7.10;;;12.90;99.90;;;;;;7586402;19;20021;-77
2023/09/07 02:52:08;;;;;;;10.02;6.65;;;12.80;99.90;;;;;;7585820;19;20026;-76
2023/09/07 02:54:41;;;;;;;9.18;7.65;;;12.70;99.90;;;;;;7598001;19;20010;-76
2023/09/07 02:57:14;;;;;;;10.35;7.28;;;12.70;99.90;;;;;;7583845;19;20057;-75
2023/09/07 02:59:47;;;;;;;10.13;7.88;;;12.70;99.90;;;;;;7590554;19;20015;-75
2023/09/07 03:02:19;;;;;;;10.85;7.60;;;12.70;99.90;;;;;;7578313;19;20374;-77
2023/09/07 03:04:58;;;;;;;10.10;6.70;;;12.70;99.90;;;;;;7576971;19;20018;-76
2023/09/07 03:07:33;;;;;;;16.90;7.57;;;12.70;99.90;;;;;;7590695;19;20070;-77
2023/09/07 03:10:05;;;;;;;11.80;7.75;;;12.70;99.90;;;;;;7580646;19;20077;-77
2023/09/07 03:12:39;;;;;;;8.80;7.43;;;12.70;99.90;;;;;;7586148;19;20011;-77
2023/09/07 03:15:12;;;;;;;9.73;7.68;;;12.70;99.90;;;;;;7591988;19;20902;-75
2023/09/07 03:17:46;;;;;;;14.82;7.35;;;12.70;99.90;;;;;;7589595;19;20074;-75
2023/09/07 03:20:19;;;;;;;9.00;7.18;;;12.60;99.90;;;;;;7593542;19;20556;-75
2023/09/07 03:22:56;;;;;;;8.43;6.63;;;12.70;99.90;;;;;;7584457;19;20638;-75
2023/09/07 03:25:28;;;;;;;;;;;12.70;99.90;;;;;;7584335;19;20672;-74
2023/09/07 03:28:00;;;;;;;10.27;7.53;;;12.60;99.90;;;;;;7593692;19;19951;-76
2023/09/07 03:30:33;;;;;;;11.50;8.20;;;12.50;99.90;;;;;;7582185;19;20060;-75
2023/09/07 03:33:06;;;;;;;11.98;8.25;;;12.50;99.90;;;;;;7565563;19;20733;-77
2023/09/07 03:35:40;;;;;;;9.73;7.85;;;12.50;99.90;;;;;;7576638;19;20022;-75
2023/09/07 03:38:13;;;;;;;11.55;7.00;;;12.40;99.90;;;;;;7577493;19;21029;-76
2023/09/07 03:40:46;;;;;;;19.33;8.87;;;12.40;99.90;;;;;;7559283;19;20049;-75
2023/09/07 03:43:19;;;;;;;10.93;7.47;;;12.40;99.90;;;;;;7570538;19;20275;-76
2023/09/07 03:45:51;;;;;;;10.05;7.15;;;12.30;99.90;;;;;;7563555;19;20018;-76
2023/09/07 03:48:23;;;;;;;13.70;8.00;;;12.40;99.90;;;;;;7584397;19;20502;-75
2023/09/07 03:50:55;;;;;;;9.63;7.18;;;12.40;99.90;;;;;;7565220;19;20835;-76
2023/09/07 03:53:27;;;;;;;10.57;6.93;;;12.30;99.90;;;;;;7589156;19;20017;-76
2023/09/07 03:56:03;;;;;;;15.13;7.05;;;12.30;99.90;;;;;;7597585;19;20726;-76
2023/09/07 03:58:36;;;;;;;11.43;7.50;;;12.30;99.90;;;;;;7586189;19;20018;-75
2023/09/07 04:01:09;;;;;;;10.82;7.85;;;12.30;99.90;;;;;;7590362;19;20377;-76
2023/09/07 04:03:41;;;;;;;11.00;8.52;;;12.30;99.90;;;;;;7581909;19;20014;-77
2023/09/07 04:06:14;;;;;;;11.93;8.07;;;12.20;99.90;;;;;;7591332;19;20778;-75
2023/09/07 04:08:46;;;;;;;14.77;8.43;;;12.10;99.90;;;;;;7574193;19;21384;-76
2023/09/07 04:11:18;;;;;;;14.07;8.18;;;12.10;99.90;;;;;;7574840;19;20015;-77
2023/09/07 04:13:50;;;;;;;15.10;7.45;;;12.10;99.90;;;;;;7588411;19;20011;-77
2023/09/07 04:16:23;;;;;;;9.40;7.05;;;12.10;99.90;;;;;;7584626;19;20681;-75
2023/09/07 04:18:55;;;;;;;13.45;7.00;;;12.10;99.90;;;;;;7588542;19;20026;-76
2023/09/07 04:21:27;;;;;;;12.50;7.07;;;12.20;99.90;;;;;;7575425;19;20912;-76
2023/09/07 04:24:08;;;;;;;10.13;7.55;;;12.20;99.90;;;;;;7593134;19;20674;-76
2023/09/07 04:26:42;;;;;;;10.13;7.50;;;12.20;99.90;;;;;;7589025;19;20583;-76
2023/09/07 04:29:14;;;;;;;11.07;7.47;;;12.20;99.90;;;;;;7574924;19;20021;-76
2023/09/07 04:31:46;;;;;;;11.25;7.47;;;12.10;99.90;;;;;;7583130;19;20014;-76
2023/09/07 04:34:19;;;;;;;10.27;6.55;;;12.10;99.90;;;;;;7576283;19;20015;-76
2023/09/07 04:36:51;;;;;;;13.35;8.02;;;12.10;99.90;;;;;;7576189;19;20143;-76
2023/09/07 04:39:24;;;;;;;9.33;6.20;;;12.00;99.90;;;;;;7587737;19;20029;-76
2023/09/07 04:41:57;;;;;;;9.57;7.28;;;12.00;99.90;;;;;;7575873;19;20026;-76
2023/09/07 04:44:29;;;;;;;11.98;7.47;;;11.90;99.90;;;;;;7590908;19;20018;-77
2023/09/07 04:47:01;;;;;;;14.82;7.55;;;11.80;99.90;;;;;;7590547;19;20488;-76
2023/09/07 04:49:34;;;;;;;11.93;7.87;;;11.90;99.90;;;;;;7592345;19;20022;-76
2023/09/07 04:52:06;;;;;;;13.27;6.75;;;12.00;99.90;;;;;;7582371;19;20010;-77
2023/09/07 04:54:39;;;;;;;9.95;7.07;;;12.10;99.90;;;;;;7594482;19;20024;-76
2023/09/07 04:57:13;;;;;;;15.80;6.82;;;12.10;99.90;;;;;;7595976;19;20042;-75
2023/09/07 04:59:45;;;;;;;11.27;7.22;;;12.00;99.90;;;;;;7588334;19;20547;-74
2023/09/07 05:02:17;;;;;;;12.52;7.97;;;12.10;99.90;;;;;;7568423;19;20531;-75
2023/09/07 05:04:50;;;;;;;9.85;7.53;;;12.00;99.90;;;;;;7581299;19;20025;-74
2023/09/07 05:07:25;;;;;;;12.73;8.30;;;12.00;99.90;;;;;;7560448;19;20014;-74
2023/09/07 05:09:58;;;;;;;12.48;8.32;;;11.90;99.90;;;;;;7579901;19;20022;-74
2023/09/07 05:12:30;;;;;;;13.68;8.70;;;11.90;99.90;;;;;;7578540;19;20017;-73
2023/09/07 05:15:06;;;;;;;12.13;8.20;;;11.90;99.90;;;;;;7577746;19;20022;-74
2023/09/07 05:17:38;;;;;;;13.43;8.45;;;11.90;99.90;;;;;;7589584;19;20075;-74
2023/09/07 05:20:11;;;;;;;9.43;7.45;;;12.00;99.90;;;;;;7581711;19;20638;-74
2023/09/07 05:22:43;;;;;;;15.82;8.77;;;12.10;99.90;;;;;;7577846;19;20361;-75
2023/09/07 05:25:16;;;;;;;9.73;7.60;;;12.00;99.90;;;;;;7583848;19;22350;-77
2023/09/07 05:27:48;;;;;;;12.13;7.65;;;12.00;99.90;;;;;;7594502;19;20018;-76
2023/09/07 05:30:21;;;;;;;13.80;9.13;;;12.00;99.90;;;;;;7575717;19;20048;-76
2023/09/07 05:32:54;;;;;;;9.68;7.18;;;12.00;99.90;;;;;;7554708;19;20395;-75
2023/09/07 05:35:29;;;;;;;14.40;9.10;;;12.20;99.90;;;;;;7570390;19;21058;-76
2023/09/07 05:38:03;;;;;;;17.52;8.63;;;12.30;99.90;;;;;;7574686;19;20025;-77
2023/09/07 05:40:37;;;;;;;15.65;9.43;;;12.30;99.90;;;;;;7577358;19;20018;-76
2023/09/07 05:43:11;;;;;;;13.02;8.60;;;12.40;99.90;;;;;;7567858;19;20025;-76
2023/09/07 05:45:44;;;;;;;15.50;9.70;;;12.50;99.90;;;;;;7581186;19;20535;-76
2023/09/07 05:48:17;;;;;;;13.98;9.57;;;12.60;99.90;;;;;;7580592;19;20007;-76
2023/09/07 05:50:50;;;;;;;12.57;9.07;;;12.60;99.90;;;;;;7575497;19;20752;-76
2023/09/07 05:53:24;;;;;;;14.30;9.27;;;12.60;99.90;;;;;;7564986;19;20041;-78
2023/09/07 05:55:57;;;;;;;19.30;9.57;;;12.80;99.90;;;;;;7567815;19;20464;-78
2023/09/07 05:58:29;;;;;;;13.90;9.15;;;12.80;99.90;;;;;;7556316;19;20363;-77
2023/09/07 06:01:02;;;;;;;14.20;8.97;;;12.90;99.90;;;;;;7554468;19;20412;-77
2023/09/07 06:03:35;;;;;;;14.82;10.05;;;12.90;99.90;;;;;;7569274;19;20022;-77
2023/09/07 06:06:08;;;;;;;16.38;9.27;;;13.00;99.90;;;;;;7574737;19;27143;-77
2023/09/07 06:08:40;;;;;;;12.57;8.75;;;13.00;99.90;;;;;;7558992;19;20015;-78
2023/09/07 06:11:13;;;;;;;19.60;8.82;;;13.10;99.90;;;;;;7593752;19;20097;-77
2023/09/07 06:13:46;;;;;;;13.60;8.55;;;13.30;99.90;;;;;;7582525;19;20007;-76
2023/09/07 06:16:19;;;;;;;17.90;10.18;;;13.40;99.90;;;;;;7577175;19;20097;-77
2023/09/07 06:18:51;;;;;;;15.38;10.30;;;13.40;99.90;;;;;;7574567;19;20026;-77
2023/09/07 06:21:24;;;;;;;14.35;9.18;;;13.60;99.90;;;;;;7571424;19;20018;-76
2023/09/07 06:23:57;;;;;;;15.60;11.45;;;13.80;99.90;;;;;;7583041;19;20010;-77
2023/09/07 06:26:29;;;;;;;17.70;11.43;;;13.90;99.90;;;;;;7583357;19;20877;-76
2023/09/07 06:29:01;;;;;;;15.88;11.20;;;14.00;99.90;;;;;;7589932;19;20034;-77
2023/09/07 06:31:34;;;;;;;16.70;11.43;;;14.10;99.90;;;;;;7590731;19;20042;-76
2023/09/07 06:34:06;;;;;;;20.25;11.40;;;14.20;99.90;;;;;;7589213;19;20110;-76
2023/09/07 06:36:39;;;;;;;22.88;11.98;;;14.40;99.90;;;;;;7587081;19;20146;-77
2023/09/07 06:39:22;;;;;;;19.95;11.55;;;14.60;99.90;;;;;;7578315;19;20023;-77
2023/09/07 06:41:54;;;;;;;19.17;12.20;;;14.80;99.90;;;;;;7589315;19;20372;-78
2023/09/07 06:44:34;;;;;;;16.50;12.43;;;15.00;99.90;;;;;;7588176;19;20010;-77
2023/09/07 06:47:07;;;;;;;16.65;11.85;;;15.30;99.90;;;;;;7578877;19;20060;-75
2023/09/07 06:49:39;;;;;;;16.77;11.48;;;15.40;99.90;;;;;;7579971;19;20414;-77
2023/09/07 06:52:13;;;;;;;16.67;12.23;;;15.60;99.90;;;;;;7588696;19;20277;-77
2023/09/07 06:54:45;;;;;;;18.15;13.27;;;15.80;99.90;;;;;;7589232;19;20039;-77
2023/09/07 06:57:17;;;;;;;17.63;13.65;;;16.00;99.90;;;;;;7596767;19;20014;-77
2023/09/07 06:59:50;;;;;;;19.45;13.48;;;16.10;99.90;;;;;;7576322;19;21098;-76
2023/09/07 07:02:22;;;;;;;16.40;12.70;;;16.30;99.90;;;;;;7585216;19;20015;-75
2023/09/07 07:04:55;;;;;;;18.87;12.80;;;16.50;99.90;;;;;;7566135;19;20014;-75
2023/09/07 07:07:29;;;;;;;22.77;12.23;;;16.60;99.90;;;;;;7579927;19;20014;-76
2023/09/07 07:10:03;;;;;;;21.25;12.27;;;16.70;99.90;;;;;;7570313;19;20481;-76
2023/09/07 07:12:38;;;;;;;27.52;13.02;;;16.80;99.90;;;;;;7598414;19;20025;-76
2023/09/07 07:15:11;;;;;;;18.52;12.30;;;16.90;99.90;;;;;;7602017;19;20055;-75
2023/09/07 07:17:44;;;;;;;15.05;11.80;;;17.10;99.90;;;;;;7578958;19;20063;-75
2023/09/07 07:20:16;;;;;;;14.15;11.55;;;17.30;99.90;;;;;;7582470;19;20022;-76
2023/09/07 07:22:48;;;;;;;14.23;11.45;;;17.40;99.90;;;;;;7585318;19;21074;-75
2023/09/07 07:25:22;;;;;;;15.05;11.63;;;17.60;99.90;;;;;;7592945;19;20064;-76
2023/09/07 07:27:54;;;;;;;14.35;11.52;;;17.70;99.90;;;;;;7589697;19;20062;-75
2023/09/07 07:30:29;;;;;;;14.60;10.75;;;17.80;99.90;;;;;;7574963;19;20011;-75
2023/09/07 07:33:03;;;;;;;17.55;11.25;;;18.00;99.90;;;;;;7532025;19;20219;-75
2023/09/07 07:35:37;;;;;;;13.80;10.68;;;18.00;99.90;;;;;;7570285;19;20023;-75
2023/09/07 07:38:13;;;;;;;15.25;10.63;;;18.20;99.90;;;;;;7591597;19;20914;-76
2023/09/07 07:40:46;;;;;;;14.70;9.82;;;18.30;99.90;;;;;;7578812;19;20113;-75
2023/09/07 07:43:19;;;;;;;;;;;18.50;99.90;;;;;;7573411;19;20550;-76
2023/09/07 07:45:53;;;;;;;16.85;10.55;;;18.60;99.90;;;;;;7592660;19;20558;-76
2023/09/07 07:48:29;;;;;;;11.70;9.80;;;18.80;99.90;;;;;;7568716;19;20022;-75
2023/09/07 07:51:05;;;;;;;15.38;10.10;;;18.90;99.90;;;;;;7581226;19;20014;-76
2023/09/07 07:53:42;;;;;;;14.95;10.65;;;19.00;99.90;;;;;;7579281;19;20026;-76
2023/09/07 07:56:19;;;;;;;13.70;10.00;;;19.10;99.90;;;;;;7581670;19;20022;-75
2023/09/07 07:58:55;;;;;;;13.55;9.50;;;19.30;99.90;;;;;;7580475;19;20022;-75
2023/09/07 08:01:29;;;;;;;10.65;9.00;;;19.20;99.90;;;;;;7581051;19;20109;-75
2023/09/07 08:04:03;;;;;;;13.88;9.80;;;19.30;99.90;;;;;;7588344;19;20022;-75
2023/09/07 08:06:37;;;;;;;12.93;10.10;;;19.50;99.90;;;;;;7581212;19;20011;-75
2023/09/07 08:09:10;;;;;;;12.02;8.98;;;19.60;99.90;;;;;;7573540;19;20025;-76
2023/09/07 08:11:42;;;;;;;15.00;11.02;;;19.60;99.90;;;;;;7576633;19;21630;-75
2023/09/07 08:14:15;;;;;;;17.92;10.60;;;19.60;99.90;;;;;;7585817;19;21494;-75
2023/09/07 08:16:47;;;;;;;11.63;9.80;;;19.70;99.90;;;;;;7586933;19;20823;-75
2023/09/07 08:19:20;;;;;;;16.33;10.07;;;19.80;99.90;;;;;;7581621;19;21466;-75
2023/09/07 08:21:53;;;;;;;15.65;9.38;;;19.90;99.90;;;;;;7570741;19;20526;-75
2023/09/07 08:24:25;;;;;;;13.85;10.02;;;19.90;99.90;;;;;;7595479;19;20024;-75
2023/09/07 08:26:59;;;;;;;12.73;9.13;;;19.90;99.90;;;;;;7566676;19;20045;-75
2023/09/07 08:29:33;;;;;;;13.20;8.93;;;20.10;99.90;;;;;;7576454;19;20082;-75
2023/09/07 08:32:05;;;;;;;16.13;9.25;;;20.00;99.90;;;;;;7594243;19;20044;-76
2023/09/07 08:34:40;;;;;;;15.63;9.27;;;20.10;99.90;;;;;;7572374;19;20029;-76
2023/09/07 08:37:12;;;;;;;13.02;9.27;;;20.10;99.90;;;;;;7599291;19;20279;-75
2023/09/07 08:39:44;;;;;;;12.50;9.55;;;20.20;99.90;;;;;;7588889;19;20026;-75
2023/09/07 08:42:17;;;;;;;11.50;9.48;;;20.20;99.90;;;;;;7573831;19;20018;-75
2023/09/07 08:44:53;;;;;;;12.38;9.35;;;20.30;99.90;;;;;;7580337;19;20013;-75
2023/09/07 08:47:29;;;;;;;13.30;8.88;;;20.30;99.90;;;;;;7599382;19;20010;-75
2023/09/07 08:50:04;;;;;;;14.68;8.52;;;20.40;99.90;;;;;;7579846;19;20013;-76
2023/09/07 08:52:36;;;;;;;16.30;9.57;;;20.40;99.90;;;;;;7562597;19;21138;-75
2023/09/07 08:55:11;;;;;;;15.13;9.18;;;20.50;99.90;;;;;;7565034;19;20018;-76
2023/09/07 08:57:43;;;;;;;15.63;9.77;;;20.60;99.90;;;;;;7560469;19;20026;-76
2023/09/07 09:00:16;;;;;;;13.93;9.88;;;20.60;99.90;;;;;;7599494;19;20516;-75
2023/09/07 09:02:49;;;;;;;;;;;20.60;99.90;;;;;;7584793;19;20147;-75
2023/09/07 09:05:29;;;;;;;11.48;8.98;;;20.70;99.90;;;;;;7588587;19;19926;-76
2023/09/07 09:08:05;;;;;;;11.30;9.35;;;20.80;99.90;;;;;;7595648;19;22084;-76
2023/09/07 09:10:40;;;;;;;13.23;8.95;;;20.70;99.90;;;;;;7585707;19;20689;-75
2023/09/07 09:13:13;;;;;;;12.60;8.87;;;20.70;99.90;;;;;;7593181;19;20011;-75
2023/09/07 09:15:48;;;;;;;11.32;8.32;;;20.80;99.90;;;;;;7573056;19;20018;-76
2023/09/07 09:18:20;;;;;;;13.18;8.75;;;20.90;99.90;;;;;;7592819;19;20506;-76
2023/09/07 09:20:54;;;;;;;18.42;9.88;;;21.00;99.90;;;;;;7584369;19;20025;-75
2023/09/07 09:23:37;;;;;;;13.88;9.63;;;21.00;99.90;;;;;;7578780;19;20019;-76
2023/09/07 09:26:09;;;;;;;12.17;9.10;;;21.10;99.90;;;;;;7576725;19;20010;-76
2023/09/07 09:28:43;;;;;;;12.20;9.40;;;21.10;99.90;;;;;;7596459;19;20790;-76
2023/09/07 09:31:17;;;;;;;12.48;9.35;;;21.20;99.90;;;;;;7597963;19;20165;-76
2023/09/07 09:33:51;;;;;;;9.53;8.23;;;21.30;99.90;;;;;;7580467;19;21022;-76
2023/09/07 09:36:23;;;;;;;;;;;21.40;99.90;;;;;;7574349;19;21027;-76
2023/09/07 09:38:55;;;;;;;13.38;9.52;;;21.50;99.90;;;;;;7526925;19;19951;-75
2023/09/07 09:41:32;;;;;;;12.20;9.07;;;21.50;99.90;;;;;;7567506;19;20018;-76
2023/09/07 09:44:05;;;;;;;13.32;9.15;;;21.50;99.90;;;;;;7568414;19;20779;-76
2023/09/07 09:46:40;;;;;;;13.00;8.57;;;21.60;99.90;;;;;;7543451;19;20014;-77
2023/09/07 09:49:13;;;;;;;9.88;8.88;;;21.70;99.90;;;;;;7578640;19;20010;-75
2023/09/07 09:51:47;;;;;;;;;;;21.80;99.90;;;;;;7568054;19;20027;-76
2023/09/07 09:54:21;;;;;;;11.05;8.20;;;21.80;99.90;;;;;;7576078;19;19918;-76
2023/09/07 09:56:57;;;;;;;13.90;9.52;;;21.90;99.90;;;;;;7566511;19;20589;-75
2023/09/07 09:59:30;;;;;;;11.57;8.87;;;21.90;99.90;;;;;;7579436;19;20014;-76
2023/09/07 10:02:04;;;;;;;13.82;9.15;;;21.90;99.90;;;;;;7574634;19;21444;-77
2023/09/07 10:04:37;;;;;;;14.02;7.95;;;21.90;99.90;;;;;;7572539;19;20061;-76
2023/09/07 10:07:09;;;;;;;11.55;8.88;;;22.00;99.90;;;;;;7565688;19;20064;-75
2023/09/07 10:09:43;;;;;;;16.87;9.43;;;22.10;99.90;;;;;;7574835;19;20019;-76
2023/09/07 10:12:15;;;;;;;14.65;8.60;;;22.10;99.90;;;;;;7583038;19;20535;-77
2023/09/07 10:14:51;;;;;;;;;;;22.30;99.90;;;;;;7575349;19;20082;-76
2023/09/07 10:17:23;;;;;;;20.48;8.48;;;22.30;99.90;;;;;;7577086;19;19930;-76
2023/09/07 10:20:05;;;;;;;10.60;8.13;;;22.40;99.90;;;;;;7579835;19;20028;-76
2023/09/07 10:22:37;;;;;;;15.05;8.25;;;22.40;99.90;;;;;;7584356;19;20334;-76
2023/09/07 10:25:21;;;;;;;11.93;8.38;;;22.50;99.90;;;;;;7586749;19;20102;-75
2023/09/07 10:27:53;;;;;;;13.02;8.65;;;22.60;99.90;;;;;;7578493;19;20030;-75
2023/09/07 10:30:25;;;;;;;10.75;7.80;;;22.60;99.90;;;;;;7579443;19;21011;-75
2023/09/07 10:32:58;;;;;;;9.80;7.88;;;22.70;99.90;;;;;;7578972;19;20487;-75
2023/09/07 10:35:37;;;;;;;13.77;7.63;;;22.80;99.90;;;;;;7591327;19;20029;-74
2023/09/07 10:38:13;;;;;;;11.20;8.25;;;22.90;99.90;;;;;;7572963;19;20062;-75
2023/09/07 10:40:48;;;;;;;12.88;8.68;;;22.90;99.90;;;;;;7563106;19;20086;-75
2023/09/07 10:43:21;;;;;;;9.82;7.97;;;23.00;99.90;;;;;;7577670;19;20021;-75
2023/09/07 10:45:55;;;;;;;10.40;8.20;;;23.10;99.90;;;;;;7575511;19;20027;-74
2023/09/07 10:48:31;;;;;;;11.45;7.97;;;23.10;99.90;;;;;;7576969;19;20056;-75
2023/09/07 10:51:04;;;;;;;11.82;8.35;;;23.20;99.90;;;;;;7580657;19;20021;-76
2023/09/07 10:53:36;;;;;;;13.00;8.93;;;23.30;99.90;;;;;;7599475;19;20029;-75
2023/09/07 10:56:09;;;;;;;10.25;7.20;;;23.30;99.90;;;;;;7570510;19;20362;-76
2023/09/07 10:58:44;;;;;;;9.77;7.67;;;23.50;99.90;;;;;;7570835;19;20022;-75
2023/09/07 11:01:16;;;;;;;8.32;7.28;;;23.50;99.90;;;;;;7563841;19;20022;-76
2023/09/07 11:03:49;;;;;;;12.05;7.88;;;23.60;99.90;;;;;;7569480;19;20843;-75
2023/09/07 11:06:22;;;;;;;9.10;7.17;;;23.80;99.90;;;;;;7565224;19;20015;-75
2023/09/07 11:09:04;;;;;;;8.55;7.53;;;23.90;99.90;;;;;;7573481;19;20142;-75
2023/09/07 11:11:37;;;;;;;9.95;7.90;;;24.10;99.90;;;;;;7591334;19;21136;-75
2023/09/07 11:14:09;;;;;;;10.30;7.60;;;24.30;99.90;;;;;;7584898;19;20090;-75
2023/09/07 11:16:43;;;;;;;13.55;7.85;;;24.60;99.90;;;;;;7576575;19;20018;-75
2023/09/07 11:19:15;;;;;;;13.00;7.70;;;24.80;99.90;;;;;;7575890;19;20731;-75
2023/09/07 11:21:47;;;;;;;13.10;7.22;;;24.80;99.90;;;;;;7593075;19;20436;-75
2023/09/07 11:24:20;;;;;;;8.65;7.47;;;25.00;99.90;;;;;;7547456;19;20021;-74
2023/09/07 11:26:52;;;;;;;11.10;7.07;;;25.10;99.90;;;;;;7572654;19;20752;-76
2023/09/07 11:29:25;;;;;;;9.45;7.00;;;25.30;99.90;;;;;;7563345;19;20805;-75
2023/09/07 11:32:08;;;;;;;9.10;7.32;;;25.60;99.90;;;;;;7580123;19;20639;-75
2023/09/07 11:34:54;;;;;;;8.18;7.32;;;25.90;99.90;;;;;;7582793;19;20029;-75
2023/09/07 11:37:31;;;;;;;11.35;7.07;;;26.30;99.90;;;;;;7589495;19;20006;-75
2023/09/07 11:40:11;;;;;;;11.68;6.68;;;26.80;99.90;;;;;;7585622;19;20671;-74
2023/09/07 11:42:43;;;;;;;10.43;6.90;;;27.10;99.90;;;;;;7581431;19;20098;-74
2023/09/07 11:45:17;;;;;;;7.07;6.37;;;27.50;99.90;;;;;;7563591;19;20017;-76
2023/09/07 11:47:49;;;;;;;8.02;6.25;;;27.80;98.90;;;;;;7578123;19;20034;-75
2023/09/07 11:50:24;;;;;;;8.30;6.27;;;28.00;98.30;;;;;;7586452;19;20023;-76
2023/09/07 11:52:56;;;;;;;9.30;6.80;;;28.30;98.00;;;;;;7591453;19;20029;-75
2023/09/07 11:55:29;;;;;;;6.78;5.95;;;28.70;96.40;;;;;;7592911;19;20030;-75
2023/09/07 11:58:03;;;;;;;8.55;6.80;;;28.80;95.10;;;;;;7576480;19;20801;-75
2023/09/07 12:00:35;;;;;;;9.93;7.03;;;29.00;94.80;;;;;;7592120;19;20014;-76
2023/09/07 12:03:07;;;;;;;12.00;6.22;;;29.30;95.10;;;;;;7594289;19;20387;-75
2023/09/07 12:05:42;;;;;;;8.32;6.30;;;29.50;94.50;;;;;;7579118;19;20025;-75
2023/09/07 12:08:14;;;;;;;7.80;6.60;;;29.60;93.40;;;;;;7587548;19;20018;-76
2023/09/07 12:10:47;;;;;;;8.00;6.22;;;29.80;92.60;;;;;;7588786;19;20030;-75
2023/09/07 12:13:19;;;;;;;7.18;6.28;;;29.90;93.40;;;;;;7581190;19;20353;-74
2023/09/07 12:15:51;;;;;;;9.75;6.45;;;30.00;92.30;;;;;;7565734;19;20014;-75
2023/09/07 12:18:23;;;;;;;7.32;6.13;;;30.10;92.00;;;;;;7547500;19;20018;-76
2023/09/07 12:20:56;;;;;;;7.68;6.72;;;30.40;92.40;;;;;;7574961;19;20089;-75
2023/09/07 12:23:28;;;;;;;7.45;5.82;;;30.70;90.60;;;;;;7577288;19;20026;-75
2023/09/07 12:26:04;;;;;;;10.32;6.50;;;30.70;90.40;;;;;;7589262;19;20117;-75
2023/09/07 12:28:36;;;;;;;9.10;7.40;;;30.70;90.20;;;;;;7578850;19;20018;-74
2023/09/07 12:31:08;;;;;;;9.10;7.10;;;31.00;90.00;;;;;;7556228;19;21000;-75
2023/09/07 12:33:41;;;;;;;7.17;6.33;;;30.80;87.50;;;;;;7568332;19;20267;-76
2023/09/07 12:36:13;;;;;;;8.95;5.93;;;30.60;87.60;;;;;;7562046;19;20594;-75
2023/09/07 12:38:45;;;;;;;8.48;5.95;;;30.60;86.50;;;;;;7587757;19;20015;-75
2023/09/07 12:41:18;;;;;;;12.10;6.40;;;30.80;84.80;;;;;;7592111;19;20025;-76
2023/09/07 12:43:50;;;;;;;7.77;5.70;;;30.90;85.40;;;;;;7569634;19;20022;-75
2023/09/07 12:46:23;;;;;;;8.88;6.50;;;31.10;83.90;;;;;;7573465;19;20290;-74
2023/09/07 12:48:55;;;;;;;7.50;6.37;;;31.30;82.70;;;;;;7574267;19;20011;-74
2023/09/07 12:51:27;;;;;;;9.05;6.45;;;31.40;83.80;;;;;;7570244;19;21844;-75
2023/09/07 12:54:00;;;;;;;7.63;6.20;;;31.60;81.70;;;;;;7571534;19;20022;-75
2023/09/07 12:56:32;;;;;;;8.20;6.27;;;31.50;82.40;;;;;;7578190;19;20014;-75
2023/09/07 12:59:05;;;;;;;8.25;6.13;;;31.60;81.70;;;;;;7588649;19;20211;-74
2023/09/07 13:01:37;;;;;;;7.30;6.18;;;31.60;82.40;;;;;;7592729;19;20081;-75
2023/09/07 13:04:11;;;;;;;7.97;5.32;;;31.80;77.40;;;;;;7569841;19;20075;-75
2023/09/07 13:06:43;;;;;;;7.20;5.60;;;31.80;76.90;;;;;;7573705;19;20018;-75
2023/09/07 13:09:16;;;;;;;5.85;5.25;;;31.60;76.80;;;;;;7589397;19;20503;-74
2023/09/07 13:11:48;;;;;;;9.87;5.77;;;31.60;75.70;;;;;;7565030;19;20026;-76